sensor_id;sensor_type;location;lat;lon;timestamp;P1;durP1;ratioP1;P2;durP2;ratioP2
31424;SDS011;18054;51.572;7.372;2023-07-08T00:02:34;8.45;;;3.15;;
31424;SDS011;18054;51.572;7.372;2023-07-08T00:05:03;5.55;;;3.03;;
31424;SDS011;18054;51.572;7.372;2023-07-08T00:07:30;8.52;;;2.55;;
31424;SDS011;18054;51.572;7.372;2023-07-08T00:09:58;6.55;;;2.83;;
31424;SDS011;18054;51.572;7.372;2023-07-08T00:12:26;10.48;;;2.70;;
31424;SDS011;18054;51.572;7.372;2023-07-08T00:14:53;9.70;;;4.07;;
31424;SDS011;18054;51.572;7.372;2023-07-08T00:17:22;7.20;;;2.95;;
31424;SDS011;18054;51.572;7.372;2023-07-08T00:19:51;6.60;;;2.80;;
31424;SDS011;18054;51.572;7.372;2023-07-08T00:22:21;7.70;;;3.30;;
31424;SDS011;18054;51.572;7.372;2023-07-08T00:24:51;6.68;;;3.00;;
31424;SDS011;18054;51.572;7.372;2023-07-08T00:27:18;5.00;;;2.30;;
31424;SDS011;18054;51.572;7.372;2023-07-08T00:29:46;16.45;;;3.00;;
31424;SDS011;18054;51.572;7.372;2023-07-08T00:32:14;5.82;;;2.85;;
31424;SDS011;18054;51.572;7.372;2023-07-08T00:34:42;5.18;;;2.60;;
31424;SDS011;18054;51.572;7.372;2023-07-08T00:37:12;10.80;;;2.92;;
31424;SDS011;18054;51.572;7.372;2023-07-08T00:39:40;9.88;;;3.05;;
31424;SDS011;18054;51.572;7.372;2023-07-08T00:42:12;7.55;;;2.85;;
31424;SDS011;18054;51.572;7.372;2023-07-08T00:44:41;5.38;;;2.72;;
31424;SDS011;18054;51.572;7.372;2023-07-08T00:47:09;8.15;;;2.65;;
31424;SDS011;18054;51.572;7.372;2023-07-08T00:49:39;5.53;;;2.70;;
31424;SDS011;18054;51.572;7.372;2023-07-08T00:52:19;10.38;;;3.00;;
31424;SDS011;18054;51.572;7.372;2023-07-08T00:54:48;6.50;;;2.85;;
31424;SDS011;18054;51.572;7.372;2023-07-08T00:57:17;5.05;;;2.58;;
31424;SDS011;18054;51.572;7.372;2023-07-08T00:59:45;6.65;;;2.90;;
31424;SDS011;18054;51.572;7.372;2023-07-08T01:02:15;7.53;;;2.75;;
31424;SDS011;18054;51.572;7.372;2023-07-08T01:04:46;15.48;;;3.40;;
31424;SDS011;18054;51.572;7.372;2023-07-08T01:07:15;10.68;;;2.78;;
31424;SDS011;18054;51.572;7.372;2023-07-08T01:09:50;5.65;;;2.65;;
31424;SDS011;18054;51.572;7.372;2023-07-08T01:12:23;12.02;;;3.08;;
31424;SDS011;18054;51.572;7.372;2023-07-08T01:14:53;8.63;;;2.80;;
31424;SDS011;18054;51.572;7.372;2023-07-08T01:17:22;5.55;;;3.17;;
31424;SDS011;18054;51.572;7.372;2023-07-08T01:19:50;8.25;;;3.17;;
31424;SDS011;18054;51.572;7.372;2023-07-08T01:22:23;5.72;;;2.75;;
31424;SDS011;18054;51.572;7.372;2023-07-08T01:24:52;9.02;;;2.55;;
31424;SDS011;18054;51.572;7.372;2023-07-08T01:27:19;8.02;;;2.90;;
31424;SDS011;18054;51.572;7.372;2023-07-08T01:29:47;5.93;;;2.65;;
31424;SDS011;18054;51.572;7.372;2023-07-08T01:32:15;5.78;;;2.78;;
31424;SDS011;18054;51.572;7.372;2023-07-08T01:34:45;8.25;;;2.75;;
31424;SDS011;18054;51.572;7.372;2023-07-08T01:37:31;7.20;;;3.25;;
31424;SDS011;18054;51.572;7.372;2023-07-08T01:42:47;8.82;;;2.88;;
31424;SDS011;18054;51.572;7.372;2023-07-08T01:45:15;8.02;;;2.83;;
31424;SDS011;18054;51.572;7.372;2023-07-08T01:47:44;4.05;;;2.33;;
31424;SDS011;18054;51.572;7.372;2023-07-08T01:50:13;7.05;;;2.90;;
31424;SDS011;18054;51.572;7.372;2023-07-08T01:52:42;16.90;;;3.25;;
31424;SDS011;18054;51.572;7.372;2023-07-08T01:55:10;7.03;;;3.25;;
31424;SDS011;18054;51.572;7.372;2023-07-08T02:00:06;9.35;;;3.47;;
31424;SDS011;18054;51.572;7.372;2023-07-08T02:02:38;6.90;;;2.90;;
31424;SDS011;18054;51.572;7.372;2023-07-08T02:07:34;8.45;;;3.15;;
31424;SDS011;18054;51.572;7.372;2023-07-08T02:10:05;8.27;;;3.17;;
31424;SDS011;18054;51.572;7.372;2023-07-08T02:12:32;6.70;;;3.30;;
31424;SDS011;18054;51.572;7.372;2023-07-08T02:15:00;8.20;;;3.00;;
31424;SDS011;18054;51.572;7.372;2023-07-08T02:17:28;6.32;;;2.90;;
31424;SDS011;18054;51.572;7.372;2023-07-08T02:19:56;4.93;;;2.83;;
31424;SDS011;18054;51.572;7.372;2023-07-08T02:22:24;7.70;;;3.38;;
31424;SDS011;18054;51.572;7.372;2023-07-08T02:24:51;6.00;;;2.90;;
31424;SDS011;18054;51.572;7.372;2023-07-08T02:27:20;6.30;;;3.13;;
31424;SDS011;18054;51.572;7.372;2023-07-08T02:29:48;6.97;;;3.05;;
31424;SDS011;18054;51.572;7.372;2023-07-08T02:32:15;5.63;;;2.75;;
31424;SDS011;18054;51.572;7.372;2023-07-08T02:34:43;9.15;;;3.17;;
31424;SDS011;18054;51.572;7.372;2023-07-08T02:37:11;6.07;;;3.13;;
31424;SDS011;18054;51.572;7.372;2023-07-08T02:39:38;6.38;;;2.80;;
31424;SDS011;18054;51.572;7.372;2023-07-08T02:42:06;5.28;;;2.95;;
31424;SDS011;18054;51.572;7.372;2023-07-08T02:44:36;7.05;;;3.30;;
31424;SDS011;18054;51.572;7.372;2023-07-08T02:47:04;11.27;;;3.83;;
31424;SDS011;18054;51.572;7.372;2023-07-08T02:49:32;10.07;;;3.38;;
31424;SDS011;18054;51.572;7.372;2023-07-08T02:54:27;12.98;;;3.67;;
31424;SDS011;18054;51.572;7.372;2023-07-08T02:56:55;5.85;;;3.13;;
31424;SDS011;18054;51.572;7.372;2023-07-08T02:59:23;11.02;;;3.15;;
31424;SDS011;18054;51.572;7.372;2023-07-08T03:01:52;5.95;;;2.90;;
31424;SDS011;18054;51.572;7.372;2023-07-08T03:04:20;5.40;;;2.97;;
31424;SDS011;18054;51.572;7.372;2023-07-08T03:06:49;6.70;;;3.33;;
31424;SDS011;18054;51.572;7.372;2023-07-08T03:09:17;7.45;;;3.40;;
31424;SDS011;18054;51.572;7.372;2023-07-08T03:11:45;5.65;;;3.20;;
31424;SDS011;18054;51.572;7.372;2023-07-08T03:14:13;13.20;;;2.85;;
31424;SDS011;18054;51.572;7.372;2023-07-08T03:16:41;5.50;;;2.90;;
31424;SDS011;18054;51.572;7.372;2023-07-08T03:19:12;7.47;;;3.70;;
31424;SDS011;18054;51.572;7.372;2023-07-08T03:21:41;10.02;;;3.55;;
31424;SDS011;18054;51.572;7.372;2023-07-08T03:26:38;10.25;;;3.63;;
31424;SDS011;18054;51.572;7.372;2023-07-08T03:29:07;7.18;;;3.45;;
31424;SDS011;18054;51.572;7.372;2023-07-08T03:31:39;9.57;;;3.60;;
31424;SDS011;18054;51.572;7.372;2023-07-08T03:34:08;12.30;;;3.70;;
31424;SDS011;18054;51.572;7.372;2023-07-08T03:36:41;16.50;;;3.55;;
31424;SDS011;18054;51.572;7.372;2023-07-08T03:39:12;9.63;;;3.55;;
31424;SDS011;18054;51.572;7.372;2023-07-08T03:41:39;17.50;;;3.50;;
31424;SDS011;18054;51.572;7.372;2023-07-08T03:44:07;5.90;;;3.22;;
31424;SDS011;18054;51.572;7.372;2023-07-08T03:46:35;9.65;;;3.50;;
31424;SDS011;18054;51.572;7.372;2023-07-08T03:49:03;6.07;;;2.90;;
31424;SDS011;18054;51.572;7.372;2023-07-08T03:51:32;8.80;;;3.25;;
31424;SDS011;18054;51.572;7.372;2023-07-08T03:54:02;8.07;;;3.30;;
31424;SDS011;18054;51.572;7.372;2023-07-08T03:56:33;7.55;;;3.10;;
31424;SDS011;18054;51.572;7.372;2023-07-08T03:59:01;5.07;;;2.58;;
31424;SDS011;18054;51.572;7.372;2023-07-08T04:01:30;22.58;;;3.63;;
31424;SDS011;18054;51.572;7.372;2023-07-08T04:06:26;13.10;;;3.67;;
31424;SDS011;18054;51.572;7.372;2023-07-08T04:08:55;7.05;;;3.00;;
31424;SDS011;18054;51.572;7.372;2023-07-08T04:11:23;5.70;;;3.30;;
31424;SDS011;18054;51.572;7.372;2023-07-08T04:13:51;10.48;;;3.38;;
31424;SDS011;18054;51.572;7.372;2023-07-08T04:16:20;8.73;;;3.50;;
31424;SDS011;18054;51.572;7.372;2023-07-08T04:18:49;7.13;;;2.70;;
31424;SDS011;18054;51.572;7.372;2023-07-08T04:21:20;8.10;;;3.42;;
31424;SDS011;18054;51.572;7.372;2023-07-08T04:23:48;5.70;;;2.95;;
31424;SDS011;18054;51.572;7.372;2023-07-08T04:26:17;14.75;;;3.05;;
31424;SDS011;18054;51.572;7.372;2023-07-08T04:28:46;18.25;;;3.33;;
31424;SDS011;18054;51.572;7.372;2023-07-08T04:31:14;8.25;;;2.90;;
31424;SDS011;18054;51.572;7.372;2023-07-08T04:33:42;8.25;;;3.00;;
31424;SDS011;18054;51.572;7.372;2023-07-08T04:36:11;5.10;;;3.22;;
31424;SDS011;18054;51.572;7.372;2023-07-08T04:38:39;6.72;;;3.20;;
31424;SDS011;18054;51.572;7.372;2023-07-08T04:41:13;11.23;;;3.20;;
31424;SDS011;18054;51.572;7.372;2023-07-08T04:46:14;9.27;;;3.10;;
31424;SDS011;18054;51.572;7.372;2023-07-08T04:48:44;6.00;;;3.15;;
31424;SDS011;18054;51.572;7.372;2023-07-08T04:51:14;5.30;;;3.13;;
31424;SDS011;18054;51.572;7.372;2023-07-08T04:53:42;11.95;;;2.97;;
31424;SDS011;18054;51.572;7.372;2023-07-08T04:56:09;9.05;;;3.35;;
31424;SDS011;18054;51.572;7.372;2023-07-08T04:58:37;10.18;;;3.15;;
31424;SDS011;18054;51.572;7.372;2023-07-08T05:01:05;10.52;;;2.80;;
31424;SDS011;18054;51.572;7.372;2023-07-08T05:03:34;9.25;;;3.03;;
31424;SDS011;18054;51.572;7.372;2023-07-08T05:06:01;12.32;;;3.63;;
31424;SDS011;18054;51.572;7.372;2023-07-08T05:08:29;10.20;;;4.00;;
31424;SDS011;18054;51.572;7.372;2023-07-08T05:10:56;17.48;;;3.83;;
31424;SDS011;18054;51.572;7.372;2023-07-08T05:13:25;9.93;;;3.45;;
31424;SDS011;18054;51.572;7.372;2023-07-08T05:15:53;7.10;;;3.05;;
31424;SDS011;18054;51.572;7.372;2023-07-08T05:18:21;5.90;;;2.75;;
31424;SDS011;18054;51.572;7.372;2023-07-08T05:20:52;7.63;;;3.15;;
31424;SDS011;18054;51.572;7.372;2023-07-08T05:23:20;6.25;;;3.13;;
31424;SDS011;18054;51.572;7.372;2023-07-08T05:25:48;6.68;;;2.90;;
31424;SDS011;18054;51.572;7.372;2023-07-08T05:28:16;8.88;;;3.13;;
31424;SDS011;18054;51.572;7.372;2023-07-08T05:30:43;5.60;;;2.90;;
31424;SDS011;18054;51.572;7.372;2023-07-08T05:33:11;11.07;;;3.13;;
31424;SDS011;18054;51.572;7.372;2023-07-08T05:35:39;21.98;;;5.00;;
31424;SDS011;18054;51.572;7.372;2023-07-08T05:38:08;6.65;;;3.45;;
31424;SDS011;18054;51.572;7.372;2023-07-08T05:40:35;9.77;;;3.15;;
31424;SDS011;18054;51.572;7.372;2023-07-08T05:43:03;6.97;;;3.50;;
31424;SDS011;18054;51.572;7.372;2023-07-08T05:45:31;8.00;;;3.10;;
31424;SDS011;18054;51.572;7.372;2023-07-08T05:47:58;6.97;;;3.22;;
31424;SDS011;18054;51.572;7.372;2023-07-08T05:50:26;9.10;;;3.60;;
31424;SDS011;18054;51.572;7.372;2023-07-08T05:52:54;15.23;;;3.75;;
31424;SDS011;18054;51.572;7.372;2023-07-08T05:55:23;8.60;;;2.80;;
31424;SDS011;18054;51.572;7.372;2023-07-08T05:57:50;10.35;;;3.05;;
31424;SDS011;18054;51.572;7.372;2023-07-08T06:00:18;8.55;;;2.88;;
31424;SDS011;18054;51.572;7.372;2023-07-08T06:03:02;8.00;;;2.78;;
31424;SDS011;18054;51.572;7.372;2023-07-08T06:05:30;14.63;;;3.10;;
31424;SDS011;18054;51.572;7.372;2023-07-08T06:07:59;8.23;;;3.80;;
31424;SDS011;18054;51.572;7.372;2023-07-08T06:10:28;10.77;;;3.15;;
31424;SDS011;18054;51.572;7.372;2023-07-08T06:12:56;6.53;;;2.63;;
31424;SDS011;18054;51.572;7.372;2023-07-08T06:15:23;16.30;;;3.00;;
31424;SDS011;18054;51.572;7.372;2023-07-08T06:17:51;8.80;;;3.58;;
31424;SDS011;18054;51.572;7.372;2023-07-08T06:25:18;6.38;;;3.08;;
31424;SDS011;18054;51.572;7.372;2023-07-08T06:30:15;5.90;;;3.08;;
31424;SDS011;18054;51.572;7.372;2023-07-08T06:32:42;7.38;;;2.67;;
31424;SDS011;18054;51.572;7.372;2023-07-08T06:35:10;8.55;;;3.38;;
31424;SDS011;18054;51.572;7.372;2023-07-08T06:37:38;9.48;;;2.75;;
31424;SDS011;18054;51.572;7.372;2023-07-08T06:42:33;14.88;;;2.90;;
31424;SDS011;18054;51.572;7.372;2023-07-08T06:45:25;5.78;;;3.13;;
31424;SDS011;18054;51.572;7.372;2023-07-08T06:47:52;7.40;;;3.05;;
31424;SDS011;18054;51.572;7.372;2023-07-08T06:50:20;9.07;;;4.20;;
31424;SDS011;18054;51.572;7.372;2023-07-08T06:57:43;10.98;;;3.33;;
31424;SDS011;18054;51.572;7.372;2023-07-08T07:00:11;6.25;;;2.70;;
31424;SDS011;18054;51.572;7.372;2023-07-08T07:02:40;10.13;;;3.30;;
31424;SDS011;18054;51.572;7.372;2023-07-08T07:05:08;15.93;;;3.22;;
31424;SDS011;18054;51.572;7.372;2023-07-08T07:10:03;11.95;;;3.17;;
31424;SDS011;18054;51.572;7.372;2023-07-08T07:12:32;11.13;;;3.13;;
31424;SDS011;18054;51.572;7.372;2023-07-08T07:15:00;10.35;;;3.13;;
31424;SDS011;18054;51.572;7.372;2023-07-08T07:19:57;14.38;;;3.33;;
31424;SDS011;18054;51.572;7.372;2023-07-08T07:22:24;6.53;;;3.15;;
31424;SDS011;18054;51.572;7.372;2023-07-08T07:24:52;7.13;;;3.35;;
31424;SDS011;18054;51.572;7.372;2023-07-08T07:29:48;8.25;;;3.25;;
31424;SDS011;18054;51.572;7.372;2023-07-08T07:32:16;8.02;;;3.47;;
31424;SDS011;18054;51.572;7.372;2023-07-08T07:34:45;10.02;;;3.35;;
31424;SDS011;18054;51.572;7.372;2023-07-08T07:37:15;6.88;;;3.40;;
31424;SDS011;18054;51.572;7.372;2023-07-08T07:39:44;6.68;;;3.25;;
31424;SDS011;18054;51.572;7.372;2023-07-08T07:44:41;5.28;;;3.10;;
31424;SDS011;18054;51.572;7.372;2023-07-08T07:49:36;11.75;;;3.55;;
31424;SDS011;18054;51.572;7.372;2023-07-08T07:59:28;10.55;;;3.58;;
31424;SDS011;18054;51.572;7.372;2023-07-08T08:01:55;12.52;;;4.43;;
31424;SDS011;18054;51.572;7.372;2023-07-08T08:06:50;12.93;;;3.65;;
31424;SDS011;18054;51.572;7.372;2023-07-08T08:11:48;12.32;;;4.40;;
31424;SDS011;18054;51.572;7.372;2023-07-08T08:14:18;8.65;;;4.05;;
31424;SDS011;18054;51.572;7.372;2023-07-08T08:16:47;13.52;;;3.85;;
31424;SDS011;18054;51.572;7.372;2023-07-08T08:19:15;10.05;;;3.83;;
31424;SDS011;18054;51.572;7.372;2023-07-08T08:31:32;8.63;;;3.88;;
31424;SDS011;18054;51.572;7.372;2023-07-08T08:34:01;10.18;;;3.92;;
31424;SDS011;18054;51.572;7.372;2023-07-08T08:36:29;14.02;;;3.95;;
31424;SDS011;18054;51.572;7.372;2023-07-08T08:41:27;10.57;;;3.90;;
31424;SDS011;18054;51.572;7.372;2023-07-08T08:43:56;10.98;;;4.70;;
31424;SDS011;18054;51.572;7.372;2023-07-08T08:46:26;7.60;;;3.75;;
31424;SDS011;18054;51.572;7.372;2023-07-08T08:48:56;11.65;;;4.28;;
31424;SDS011;18054;51.572;7.372;2023-07-08T08:51:26;7.80;;;3.67;;
31424;SDS011;18054;51.572;7.372;2023-07-08T08:53:56;14.55;;;4.10;;
31424;SDS011;18054;51.572;7.372;2023-07-08T08:56:25;9.95;;;4.72;;
31424;SDS011;18054;51.572;7.372;2023-07-08T08:58:54;9.57;;;3.25;;
31424;SDS011;18054;51.572;7.372;2023-07-08T09:01:24;6.30;;;3.75;;
31424;SDS011;18054;51.572;7.372;2023-07-08T09:03:53;13.00;;;5.10;;
31424;SDS011;18054;51.572;7.372;2023-07-08T09:06:23;11.30;;;4.80;;
31424;SDS011;18054;51.572;7.372;2023-07-08T09:08:52;6.18;;;4.00;;
31424;SDS011;18054;51.572;7.372;2023-07-08T09:11:23;11.95;;;4.05;;
31424;SDS011;18054;51.572;7.372;2023-07-08T09:13:53;8.38;;;4.22;;
31424;SDS011;18054;51.572;7.372;2023-07-08T09:16:25;11.65;;;4.70;;
31424;SDS011;18054;51.572;7.372;2023-07-08T09:18:56;11.63;;;4.50;;
31424;SDS011;18054;51.572;7.372;2023-07-08T09:21:27;6.55;;;4.18;;
31424;SDS011;18054;51.572;7.372;2023-07-08T09:23:59;10.70;;;4.90;;
31424;SDS011;18054;51.572;7.372;2023-07-08T09:26:27;12.82;;;5.45;;
31424;SDS011;18054;51.572;7.372;2023-07-08T09:28:57;12.20;;;5.07;;
31424;SDS011;18054;51.572;7.372;2023-07-08T09:31:26;12.68;;;4.93;;
31424;SDS011;18054;51.572;7.372;2023-07-08T09:34:04;9.77;;;4.82;;
31424;SDS011;18054;51.572;7.372;2023-07-08T09:36:32;12.35;;;4.90;;
31424;SDS011;18054;51.572;7.372;2023-07-08T09:39:01;13.02;;;5.00;;
31424;SDS011;18054;51.572;7.372;2023-07-08T09:41:30;9.95;;;4.78;;
31424;SDS011;18054;51.572;7.372;2023-07-08T09:44:05;10.88;;;5.00;;
31424;SDS011;18054;51.572;7.372;2023-07-08T09:46:36;15.63;;;5.47;;
31424;SDS011;18054;51.572;7.372;2023-07-08T09:49:18;10.73;;;4.82;;
31424;SDS011;18054;51.572;7.372;2023-07-08T09:51:46;15.70;;;5.20;;
31424;SDS011;18054;51.572;7.372;2023-07-08T09:54:18;12.35;;;5.28;;
31424;SDS011;18054;51.572;7.372;2023-07-08T09:56:49;9.70;;;4.97;;
31424;SDS011;18054;51.572;7.372;2023-07-08T09:59:19;11.95;;;6.03;;
31424;SDS011;18054;51.572;7.372;2023-07-08T10:01:49;9.02;;;5.60;;
31424;SDS011;18054;51.572;7.372;2023-07-08T10:04:17;11.88;;;5.65;;
31424;SDS011;18054;51.572;7.372;2023-07-08T10:06:46;11.35;;;6.18;;
31424;SDS011;18054;51.572;7.372;2023-07-08T10:09:18;12.73;;;5.85;;
31424;SDS011;18054;51.572;7.372;2023-07-08T10:11:49;12.38;;;5.93;;
31424;SDS011;18054;51.572;7.372;2023-07-08T10:14:22;9.68;;;5.88;;
31424;SDS011;18054;51.572;7.372;2023-07-08T10:16:52;9.77;;;6.13;;
31424;SDS011;18054;51.572;7.372;2023-07-08T10:19:20;12.63;;;6.10;;
31424;SDS011;18054;51.572;7.372;2023-07-08T10:21:51;12.25;;;6.43;;
31424;SDS011;18054;51.572;7.372;2023-07-08T10:24:30;9.20;;;5.95;;
31424;SDS011;18054;51.572;7.372;2023-07-08T10:29:52;12.07;;;5.93;;
31424;SDS011;18054;51.572;7.372;2023-07-08T10:32:23;10.90;;;5.75;;
31424;SDS011;18054;51.572;7.372;2023-07-08T10:34:54;14.30;;;5.70;;
31424;SDS011;18054;51.572;7.372;2023-07-08T10:37:26;14.32;;;6.18;;
31424;SDS011;18054;51.572;7.372;2023-07-08T10:40:02;7.40;;;4.85;;
31424;SDS011;18054;51.572;7.372;2023-07-08T10:42:39;8.48;;;4.70;;
31424;SDS011;18054;51.572;7.372;2023-07-08T10:45:13;9.88;;;4.93;;
31424;SDS011;18054;51.572;7.372;2023-07-08T10:47:45;8.20;;;4.47;;
31424;SDS011;18054;51.572;7.372;2023-07-08T10:50:24;11.23;;;4.93;;
31424;SDS011;18054;51.572;7.372;2023-07-08T10:52:55;11.25;;;4.95;;
31424;SDS011;18054;51.572;7.372;2023-07-08T10:55:28;8.35;;;4.90;;
31424;SDS011;18054;51.572;7.372;2023-07-08T10:58:01;12.77;;;5.50;;
31424;SDS011;18054;51.572;7.372;2023-07-08T11:00:35;8.63;;;4.82;;
31424;SDS011;18054;51.572;7.372;2023-07-08T11:05:52;9.13;;;4.78;;
31424;SDS011;18054;51.572;7.372;2023-07-08T11:08:25;9.73;;;4.80;;
31424;SDS011;18054;51.572;7.372;2023-07-08T11:10:55;12.10;;;4.93;;
31424;SDS011;18054;51.572;7.372;2023-07-08T11:13:42;8.00;;;4.60;;
31424;SDS011;18054;51.572;7.372;2023-07-08T11:16:14;7.28;;;4.47;;
31424;SDS011;18054;51.572;7.372;2023-07-08T11:18:43;7.55;;;3.90;;
31424;SDS011;18054;51.572;7.372;2023-07-08T11:21:16;8.13;;;4.70;;
31424;SDS011;18054;51.572;7.372;2023-07-08T11:23:48;9.00;;;4.68;;
31424;SDS011;18054;51.572;7.372;2023-07-08T11:26:18;6.18;;;4.03;;
31424;SDS011;18054;51.572;7.372;2023-07-08T11:28:48;7.95;;;4.57;;
31424;SDS011;18054;51.572;7.372;2023-07-08T11:31:19;6.88;;;3.92;;
31424;SDS011;18054;51.572;7.372;2023-07-08T11:33:47;8.43;;;4.43;;
31424;SDS011;18054;51.572;7.372;2023-07-08T11:36:15;16.13;;;4.25;;
31424;SDS011;18054;51.572;7.372;2023-07-08T11:38:47;7.00;;;3.97;;
31424;SDS011;18054;51.572;7.372;2023-07-08T11:41:15;11.30;;;4.15;;
31424;SDS011;18054;51.572;7.372;2023-07-08T11:43:45;8.23;;;3.90;;
31424;SDS011;18054;51.572;7.372;2023-07-08T11:46:14;10.98;;;4.53;;
31424;SDS011;18054;51.572;7.372;2023-07-08T11:48:43;5.88;;;3.55;;
31424;SDS011;18054;51.572;7.372;2023-07-08T11:51:15;7.25;;;4.03;;
31424;SDS011;18054;51.572;7.372;2023-07-08T11:53:47;11.45;;;4.03;;
31424;SDS011;18054;51.572;7.372;2023-07-08T11:56:20;6.90;;;3.90;;
31424;SDS011;18054;51.572;7.372;2023-07-08T11:58:57;6.40;;;3.63;;
31424;SDS011;18054;51.572;7.372;2023-07-08T12:01:26;10.07;;;4.05;;
31424;SDS011;18054;51.572;7.372;2023-07-08T12:04:00;8.18;;;3.95;;
31424;SDS011;18054;51.572;7.372;2023-07-08T12:06:41;9.65;;;4.60;;
31424;SDS011;18054;51.572;7.372;2023-07-08T12:09:13;7.18;;;4.03;;
31424;SDS011;18054;51.572;7.372;2023-07-08T12:11:43;11.30;;;3.88;;
31424;SDS011;18054;51.572;7.372;2023-07-08T12:14:11;6.72;;;3.70;;
31424;SDS011;18054;51.572;7.372;2023-07-08T12:16:39;6.60;;;3.80;;
31424;SDS011;18054;51.572;7.372;2023-07-08T12:19:11;7.57;;;4.15;;
31424;SDS011;18054;51.572;7.372;2023-07-08T12:21:40;12.73;;;3.70;;
31424;SDS011;18054;51.572;7.372;2023-07-08T12:24:10;9.93;;;4.13;;
31424;SDS011;18054;51.572;7.372;2023-07-08T12:26:39;7.18;;;3.90;;
31424;SDS011;18054;51.572;7.372;2023-07-08T12:29:08;10.50;;;3.95;;
31424;SDS011;18054;51.572;7.372;2023-07-08T12:31:36;7.15;;;3.65;;
31424;SDS011;18054;51.572;7.372;2023-07-08T12:34:07;7.07;;;3.88;;
31424;SDS011;18054;51.572;7.372;2023-07-08T12:36:38;9.15;;;3.38;;
31424;SDS011;18054;51.572;7.372;2023-07-08T12:39:07;6.13;;;3.30;;
31424;SDS011;18054;51.572;7.372;2023-07-08T12:41:37;9.82;;;3.72;;
31424;SDS011;18054;51.572;7.372;2023-07-08T12:44:07;10.13;;;4.05;;
31424;SDS011;18054;51.572;7.372;2023-07-08T12:46:41;8.90;;;3.38;;
31424;SDS011;18054;51.572;7.372;2023-07-08T12:49:08;9.27;;;3.97;;
31424;SDS011;18054;51.572;7.372;2023-07-08T12:51:36;9.52;;;3.75;;
31424;SDS011;18054;51.572;7.372;2023-07-08T12:54:08;7.65;;;4.03;;
31424;SDS011;18054;51.572;7.372;2023-07-08T12:56:36;12.75;;;4.57;;
31424;SDS011;18054;51.572;7.372;2023-07-08T12:59:04;7.32;;;3.55;;
31424;SDS011;18054;51.572;7.372;2023-07-08T13:01:33;6.75;;;4.00;;
31424;SDS011;18054;51.572;7.372;2023-07-08T13:04:03;12.40;;;3.83;;
31424;SDS011;18054;51.572;7.372;2023-07-08T13:06:32;7.88;;;3.85;;
31424;SDS011;18054;51.572;7.372;2023-07-08T13:09:02;8.00;;;3.63;;
31424;SDS011;18054;51.572;7.372;2023-07-08T13:11:34;8.27;;;3.47;;
31424;SDS011;18054;51.572;7.372;2023-07-08T13:14:04;5.68;;;3.30;;
31424;SDS011;18054;51.572;7.372;2023-07-08T13:16:33;8.13;;;3.50;;
31424;SDS011;18054;51.572;7.372;2023-07-08T13:19:02;6.38;;;3.60;;
31424;SDS011;18054;51.572;7.372;2023-07-08T13:21:30;8.80;;;4.38;;
31424;SDS011;18054;51.572;7.372;2023-07-08T13:23:59;11.48;;;4.45;;
31424;SDS011;18054;51.572;7.372;2023-07-08T13:26:27;10.00;;;3.28;;
31424;SDS011;18054;51.572;7.372;2023-07-08T13:29:01;9.23;;;3.45;;
31424;SDS011;18054;51.572;7.372;2023-07-08T13:31:32;8.90;;;3.95;;
31424;SDS011;18054;51.572;7.372;2023-07-08T13:34:05;9.43;;;4.15;;
31424;SDS011;18054;51.572;7.372;2023-07-08T13:36:34;6.68;;;4.28;;
31424;SDS011;18054;51.572;7.372;2023-07-08T13:39:04;11.98;;;4.10;;
31424;SDS011;18054;51.572;7.372;2023-07-08T13:41:32;8.75;;;4.07;;
31424;SDS011;18054;51.572;7.372;2023-07-08T13:44:04;13.68;;;4.00;;
31424;SDS011;18054;51.572;7.372;2023-07-08T13:46:34;13.75;;;3.83;;
31424;SDS011;18054;51.572;7.372;2023-07-08T13:49:09;14.95;;;4.97;;
31424;SDS011;18054;51.572;7.372;2023-07-08T13:51:37;11.27;;;4.25;;
31424;SDS011;18054;51.572;7.372;2023-07-08T13:54:13;12.38;;;4.47;;
31424;SDS011;18054;51.572;7.372;2023-07-08T13:56:41;6.55;;;3.67;;
31424;SDS011;18054;51.572;7.372;2023-07-08T13:59:12;8.75;;;4.72;;
31424;SDS011;18054;51.572;7.372;2023-07-08T14:01:43;8.77;;;3.92;;
31424;SDS011;18054;51.572;7.372;2023-07-08T14:04:12;9.88;;;4.15;;
31424;SDS011;18054;51.572;7.372;2023-07-08T14:06:40;9.20;;;4.07;;
31424;SDS011;18054;51.572;7.372;2023-07-08T14:09:11;10.38;;;3.80;;
31424;SDS011;18054;51.572;7.372;2023-07-08T14:11:39;9.23;;;4.43;;
31424;SDS011;18054;51.572;7.372;2023-07-08T14:14:07;7.68;;;3.00;;
31424;SDS011;18054;51.572;7.372;2023-07-08T14:16:37;7.72;;;3.53;;
31424;SDS011;18054;51.572;7.372;2023-07-08T14:19:06;5.53;;;3.47;;
31424;SDS011;18054;51.572;7.372;2023-07-08T14:21:35;7.85;;;3.70;;
31424;SDS011;18054;51.572;7.372;2023-07-08T14:24:08;9.70;;;3.92;;
31424;SDS011;18054;51.572;7.372;2023-07-08T14:26:36;7.53;;;4.20;;
31424;SDS011;18054;51.572;7.372;2023-07-08T14:29:03;10.57;;;3.80;;
31424;SDS011;18054;51.572;7.372;2023-07-08T14:31:31;7.00;;;3.78;;
31424;SDS011;18054;51.572;7.372;2023-07-08T14:34:02;6.43;;;3.80;;
31424;SDS011;18054;51.572;7.372;2023-07-08T14:36:30;11.98;;;3.65;;
31424;SDS011;18054;51.572;7.372;2023-07-08T14:38:58;9.23;;;3.90;;
31424;SDS011;18054;51.572;7.372;2023-07-08T14:41:26;8.93;;;3.78;;
31424;SDS011;18054;51.572;7.372;2023-07-08T14:43:54;6.75;;;3.55;;
31424;SDS011;18054;51.572;7.372;2023-07-08T14:46:22;7.22;;;3.97;;
31424;SDS011;18054;51.572;7.372;2023-07-08T14:48:50;10.13;;;3.88;;
31424;SDS011;18054;51.572;7.372;2023-07-08T14:51:19;6.90;;;3.53;;
31424;SDS011;18054;51.572;7.372;2023-07-08T14:53:47;7.25;;;3.90;;
31424;SDS011;18054;51.572;7.372;2023-07-08T14:56:15;11.77;;;3.63;;
31424;SDS011;18054;51.572;7.372;2023-07-08T14:58:44;8.60;;;4.50;;
31424;SDS011;18054;51.572;7.372;2023-07-08T15:01:14;8.82;;;4.13;;
31424;SDS011;18054;51.572;7.372;2023-07-08T15:03:42;11.10;;;4.30;;
31424;SDS011;18054;51.572;7.372;2023-07-08T15:06:10;11.30;;;4.60;;
31424;SDS011;18054;51.572;7.372;2023-07-08T15:08:39;9.18;;;4.15;;
31424;SDS011;18054;51.572;7.372;2023-07-08T15:11:08;11.00;;;4.20;;
31424;SDS011;18054;51.572;7.372;2023-07-08T15:13:36;9.55;;;4.25;;
31424;SDS011;18054;51.572;7.372;2023-07-08T15:16:04;7.35;;;3.95;;
31424;SDS011;18054;51.572;7.372;2023-07-08T15:18:32;10.70;;;4.22;;
31424;SDS011;18054;51.572;7.372;2023-07-08T15:21:00;13.15;;;4.15;;
31424;SDS011;18054;51.572;7.372;2023-07-08T15:23:28;7.85;;;3.95;;
31424;SDS011;18054;51.572;7.372;2023-07-08T15:25:57;8.10;;;3.85;;
31424;SDS011;18054;51.572;7.372;2023-07-08T15:28:32;12.38;;;4.30;;
31424;SDS011;18054;51.572;7.372;2023-07-08T15:31:02;8.48;;;3.92;;
31424;SDS011;18054;51.572;7.372;2023-07-08T15:33:30;6.85;;;4.13;;
31424;SDS011;18054;51.572;7.372;2023-07-08T15:35:58;6.63;;;3.88;;
31424;SDS011;18054;51.572;7.372;2023-07-08T15:38:25;7.93;;;4.70;;
31424;SDS011;18054;51.572;7.372;2023-07-08T15:40:53;12.23;;;5.00;;
31424;SDS011;18054;51.572;7.372;2023-07-08T15:43:21;9.82;;;4.82;;
31424;SDS011;18054;51.572;7.372;2023-07-08T15:45:49;10.38;;;4.18;;
31424;SDS011;18054;51.572;7.372;2023-07-08T15:48:17;7.75;;;4.03;;
31424;SDS011;18054;51.572;7.372;2023-07-08T15:50:45;8.88;;;3.83;;
31424;SDS011;18054;51.572;7.372;2023-07-08T15:53:13;7.30;;;3.65;;
31424;SDS011;18054;51.572;7.372;2023-07-08T15:55:42;11.05;;;4.28;;
31424;SDS011;18054;51.572;7.372;2023-07-08T15:58:10;7.07;;;3.85;;
31424;SDS011;18054;51.572;7.372;2023-07-08T16:00:40;8.80;;;4.18;;
31424;SDS011;18054;51.572;7.372;2023-07-08T16:03:11;9.75;;;4.43;;
31424;SDS011;18054;51.572;7.372;2023-07-08T16:05:40;9.60;;;5.07;;
31424;SDS011;18054;51.572;7.372;2023-07-08T16:08:08;17.55;;;5.40;;
31424;SDS011;18054;51.572;7.372;2023-07-08T16:10:36;15.02;;;5.10;;
31424;SDS011;18054;51.572;7.372;2023-07-08T16:13:04;12.93;;;5.43;;